createdAt,value
2018-11-28T00:00:31.290Z,3.30
2018-11-28T00:03:02.521Z,3.30
2018-11-28T00:05:30.818Z,3.30
2018-11-28T00:07:59.189Z,3.20
2018-11-28T00:10:27.393Z,3.30
2018-11-28T00:12:55.666Z,3.30
2018-11-28T00:15:23.864Z,3.30
2018-11-28T00:17:52.180Z,3.30
2018-11-28T00:20:21.399Z,3.20
2018-11-28T00:22:49.611Z,3.20
2018-11-28T00:25:18.448Z,3.20
2018-11-28T00:27:46.674Z,3.20
2018-11-28T00:30:20.739Z,3.20
2018-11-28T00:32:48.951Z,3.10
2018-11-28T00:35:18.260Z,3.10
2018-11-28T00:37:46.490Z,3.10
2018-11-28T00:40:15.974Z,3.10
2018-11-28T00:42:44.225Z,3.10
2018-11-28T00:45:15.259Z,3.10
2018-11-28T00:47:43.517Z,3.10
2018-11-28T00:50:12.847Z,3.10
2018-11-28T00:52:41.053Z,3.10
2018-11-28T00:55:12.259Z,3.10
2018-11-28T00:57:40.521Z,3.10
2018-11-28T01:00:12.091Z,3.10
2018-11-28T01:02:40.306Z,3.10
2018-11-28T01:05:09.811Z,3.00
2018-11-28T01:07:38.026Z,3.00
2018-11-28T01:10:10.043Z,3.00
2018-11-28T01:12:38.329Z,3.00
2018-11-28T01:15:07.771Z,3.00
2018-11-28T01:17:35.995Z,3.00
2018-11-28T01:20:05.153Z,3.00
2018-11-28T01:22:33.360Z,3.00
2018-11-28T01:25:01.517Z,3.00
2018-11-28T01:27:29.740Z,2.90
2018-11-28T01:29:57.903Z,2.90
2018-11-28T01:32:26.106Z,2.90
2018-11-28T01:34:54.323Z,2.90
2018-11-28T01:37:22.525Z,2.80
2018-11-28T01:39:50.760Z,2.80
2018-11-28T01:42:18.933Z,2.80
2018-11-28T01:44:47.089Z,2.80
2018-11-28T01:47:15.370Z,2.80
2018-11-28T01:49:43.550Z,2.70
2018-11-28T01:52:11.763Z,2.70
2018-11-28T01:54:39.959Z,2.60
2018-11-28T01:57:08.126Z,2.60
2018-11-28T01:59:36.285Z,2.60
2018-11-28T02:02:04.527Z,2.60
2018-11-28T02:04:32.706Z,2.60
2018-11-28T02:07:00.961Z,2.50
2018-11-28T02:09:29.138Z,2.50
2018-11-28T02:11:57.322Z,2.50
2018-11-28T02:14:25.551Z,2.50
2018-11-28T02:16:53.883Z,2.60
2018-11-28T02:19:22.055Z,2.60
2018-11-28T02:21:50.214Z,2.60
2018-11-28T02:24:18.470Z,2.60
2018-11-28T02:26:46.653Z,2.60
2018-11-28T02:29:14.857Z,2.60
2018-11-28T02:31:43.013Z,2.60
2018-11-28T02:34:11.176Z,2.70
2018-11-28T02:36:39.403Z,2.70
2018-11-28T02:39:09.299Z,2.70
2018-11-28T02:41:37.468Z,2.70
2018-11-28T02:44:06.613Z,2.80
2018-11-28T02:46:34.783Z,2.80
2018-11-28T02:49:02.962Z,2.80
2018-11-28T02:51:31.121Z,2.90
2018-11-28T02:53:59.339Z,2.90
2018-11-28T02:56:27.571Z,2.90
2018-11-28T02:58:55.840Z,2.90
2018-11-28T03:01:24.014Z,2.90
2018-11-28T03:03:52.396Z,2.90
2018-11-28T03:06:20.521Z,2.90
2018-11-28T03:08:48.712Z,3.00
2018-11-28T03:11:16.893Z,2.90
2018-11-28T03:13:45.084Z,2.90
2018-11-28T03:16:18.057Z,3.00
2018-11-28T03:18:46.666Z,3.00
2018-11-28T03:21:14.995Z,3.00
2018-11-28T03:23:43.175Z,3.00
2018-11-28T03:26:11.348Z,3.10
2018-11-28T03:28:39.490Z,3.10
2018-11-28T03:31:07.626Z,3.20
2018-11-28T03:33:35.828Z,3.20
2018-11-28T03:36:04.099Z,3.20
2018-11-28T03:38:32.382Z,3.20
2018-11-28T03:41:00.566Z,3.20
2018-11-28T03:43:28.731Z,3.30
2018-11-28T03:45:56.947Z,3.30
2018-11-28T03:48:30.900Z,3.30
2018-11-28T03:51:00.671Z,3.30
2018-11-28T03:53:27.340Z,3.30
2018-11-28T03:55:55.545Z,3.30
2018-11-28T03:58:23.787Z,3.30
2018-11-28T04:00:52.006Z,3.30
2018-11-28T04:03:20.190Z,3.30
2018-11-28T04:05:48.428Z,3.30
2018-11-28T04:08:16.635Z,3.30
2018-11-28T04:10:44.830Z,3.30
2018-11-28T04:13:13.042Z,3.30
2018-11-28T04:15:41.369Z,3.20
2018-11-28T04:18:09.553Z,3.20
2018-11-28T04:20:37.821Z,3.20
2018-11-28T04:23:06.005Z,3.20
2018-11-28T04:25:34.943Z,3.20
2018-11-28T04:28:03.147Z,3.10
2018-11-28T04:30:38.392Z,3.20
2018-11-28T04:33:06.593Z,3.20
2018-11-28T04:35:34.825Z,3.20
2018-11-28T04:38:03.028Z,3.20
2018-11-28T04:40:31.230Z,3.20
2018-11-28T04:43:09.126Z,3.20
2018-11-28T04:45:37.381Z,3.30
2018-11-28T04:48:07.722Z,3.30
2018-11-28T04:50:40.088Z,3.30
2018-11-28T04:53:08.266Z,3.30
2018-11-28T04:55:36.458Z,3.30
2018-11-28T04:58:04.692Z,3.40
2018-11-28T05:00:37.509Z,3.40
2018-11-28T05:03:06.201Z,3.40
2018-11-28T05:05:34.487Z,3.40
2018-11-28T05:08:09.603Z,3.40
2018-11-28T05:10:37.820Z,3.40
2018-11-28T05:13:07.068Z,3.40
2018-11-28T05:15:35.301Z,3.50
2018-11-28T05:18:03.572Z,3.50
2018-11-28T05:20:35.299Z,3.50
2018-11-28T05:23:04.707Z,3.50
2018-11-28T05:25:33.813Z,3.60
2018-11-28T05:28:02.106Z,3.50
2018-11-28T05:30:31.170Z,3.50
2018-11-28T05:32:59.485Z,3.60
2018-11-28T05:35:36.325Z,3.60
2018-11-28T05:38:16.883Z,3.60
2018-11-28T05:40:48.301Z,3.60
2018-11-28T05:43:17.785Z,3.60
2018-11-28T05:45:48.086Z,3.60
2018-11-28T05:48:19.899Z,3.60
2018-11-28T05:50:48.130Z,3.70
2018-11-28T05:53:16.485Z,3.60
2018-11-28T05:55:44.750Z,3.70
2018-11-28T05:58:12.931Z,3.70
2018-11-28T06:00:41.935Z,3.70
2018-11-28T06:03:10.999Z,3.70
2018-11-28T06:05:40.096Z,3.70
2018-11-28T06:08:10.450Z,3.80
2018-11-28T06:10:38.691Z,3.80
2018-11-28T06:13:06.904Z,3.80
2018-11-28T06:15:35.057Z,3.80
2018-11-28T06:18:03.329Z,3.80
2018-11-28T06:20:31.614Z,3.70
2018-11-28T06:23:00.188Z,3.70
2018-11-28T06:25:28.367Z,3.70
2018-11-28T06:27:56.578Z,3.70
2018-11-28T06:30:24.817Z,3.60
2018-11-28T06:32:53.126Z,3.60
2018-11-28T06:35:21.471Z,3.60
2018-11-28T06:37:49.762Z,3.60
2018-11-28T06:40:23.587Z,3.60
2018-11-28T06:42:47.526Z,3.70
2018-11-28T06:45:16.981Z,3.70
2018-11-28T06:47:45.229Z,3.70
2018-11-28T06:50:17.435Z,3.70
2018-11-28T06:52:46.782Z,3.70
2018-11-28T06:55:15.929Z,3.70
2018-11-28T06:57:44.098Z,3.80
2018-11-28T07:00:13.647Z,3.80
2018-11-28T07:02:42.196Z,3.80
2018-11-28T07:05:11.160Z,3.80
2018-11-28T07:07:39.381Z,3.80
2018-11-28T07:10:10.065Z,3.80
2018-11-28T07:12:46.327Z,3.80
2018-11-28T07:15:15.650Z,3.80
2018-11-28T07:17:44.101Z,3.70
2018-11-28T07:20:14.254Z,3.70
2018-11-28T07:22:42.454Z,3.70
2018-11-28T07:25:12.638Z,3.80
2018-11-28T07:27:44.995Z,3.80
2018-11-28T07:30:13.749Z,3.80
2018-11-28T07:32:42.020Z,3.80
2018-11-28T07:35:10.972Z,3.90
2018-11-28T07:37:39.253Z,3.90
2018-11-28T07:40:11.960Z,3.90
2018-11-28T07:42:48.833Z,4.00
2018-11-28T07:45:21.146Z,4.00
2018-11-28T07:47:49.326Z,4.00
2018-11-28T07:50:17.541Z,4.10
2018-11-28T07:52:45.789Z,4.00
2018-11-28T07:55:14.062Z,4.10
2018-11-28T07:57:42.644Z,4.10
2018-11-28T08:00:13.626Z,4.10
2018-11-28T08:02:42.119Z,4.10
2018-11-28T08:05:11.133Z,4.10
2018-11-28T08:07:39.445Z,4.10
2018-11-28T08:10:10.489Z,4.20
2018-11-28T08:12:38.799Z,4.20
2018-11-28T08:15:08.252Z,4.20
2018-11-28T08:17:36.489Z,4.20
2018-11-28T08:20:04.878Z,4.20
2018-11-28T08:22:36.540Z,4.30
2018-11-28T08:25:05.059Z,4.30
2018-11-28T08:27:33.045Z,4.30
2018-11-28T08:30:01.319Z,4.30
2018-11-28T08:32:29.531Z,4.30
2018-11-28T08:34:57.786Z,4.30
2018-11-28T08:37:26.055Z,4.40
2018-11-28T08:39:54.257Z,4.40
2018-11-28T08:42:22.562Z,4.40
2018-11-28T08:44:50.779Z,4.40
2018-11-28T08:47:19.007Z,4.50
2018-11-28T08:49:47.268Z,4.50
2018-11-28T08:52:15.628Z,4.50
2018-11-28T08:54:43.821Z,4.50
2018-11-28T08:57:12.069Z,4.50
2018-11-28T08:59:40.366Z,4.50
2018-11-28T09:02:08.634Z,4.50
2018-11-28T09:04:36.849Z,4.50
2018-11-28T09:07:05.233Z,4.60
2018-11-28T09:09:33.509Z,4.60
2018-11-28T09:12:02.061Z,4.70
2018-11-28T09:14:30.383Z,4.70
2018-11-28T09:16:58.646Z,4.70
2018-11-28T09:19:26.983Z,4.80
2018-11-28T09:21:55.551Z,4.80
2018-11-28T09:24:23.759Z,4.80
2018-11-28T09:26:52.050Z,4.90
2018-11-28T09:29:20.306Z,4.90
2018-11-28T09:31:48.792Z,4.90
2018-11-28T09:34:17.067Z,5.00
2018-11-28T09:36:45.255Z,5.10
2018-11-28T09:39:15.666Z,5.20
2018-11-28T09:41:43.956Z,5.20
2018-11-28T09:44:12.230Z,5.20
2018-11-28T09:46:40.436Z,5.20
2018-11-28T09:49:08.678Z,5.20
2018-11-28T09:51:36.922Z,5.30
2018-11-28T09:54:05.933Z,5.30
2018-11-28T09:56:34.215Z,5.30
2018-11-28T09:59:02.439Z,5.40
2018-11-28T10:01:30.752Z,5.40
2018-11-28T10:03:58.936Z,5.50
2018-11-28T10:06:27.132Z,5.50
2018-11-28T10:08:55.520Z,5.50
2018-11-28T10:11:23.750Z,5.60
2018-11-28T10:13:51.993Z,5.70
2018-11-28T10:16:20.180Z,5.70
2018-11-28T10:18:51.765Z,5.80
2018-11-28T10:21:19.975Z,5.80
2018-11-28T10:23:48.179Z,5.80
2018-11-28T10:26:16.475Z,5.80
2018-11-28T10:28:44.736Z,5.90
2018-11-28T10:31:12.918Z,5.90
2018-11-28T10:33:41.188Z,5.90
2018-11-28T10:36:09.371Z,5.90
2018-11-28T10:38:37.632Z,5.90
2018-11-28T10:41:06.327Z,5.90
2018-11-28T10:43:34.528Z,5.90
2018-11-28T10:46:02.828Z,5.90
2018-11-28T10:48:31.057Z,5.90
2018-11-28T10:51:04.400Z,5.80
2018-11-28T10:53:33.677Z,5.80
2018-11-28T10:56:01.866Z,5.80
2018-11-28T10:58:33.935Z,5.90
2018-11-28T11:01:07.495Z,6.00
2018-11-28T11:03:41.219Z,6.00
2018-11-28T11:06:15.010Z,5.90
2018-11-28T11:08:48.683Z,5.90
2018-11-28T11:11:23.777Z,5.90
2018-11-28T11:14:56.561Z,6.00
2018-11-28T11:17:24.806Z,6.00
2018-11-28T11:19:53.082Z,6.00
2018-11-28T11:22:21.368Z,6.10
2018-11-28T11:24:49.635Z,6.10
2018-11-28T11:27:17.880Z,6.20
2018-11-28T11:29:46.111Z,6.10
2018-11-28T11:32:14.427Z,6.10
2018-11-28T11:34:42.637Z,6.10
2018-11-28T11:37:10.908Z,6.10
2018-11-28T11:39:39.393Z,6.00
2018-11-28T11:42:07.860Z,6.00
2018-11-28T11:44:36.165Z,6.00
2018-11-28T11:47:04.531Z,6.00
2018-11-28T11:49:32.875Z,6.00
2018-11-28T11:52:01.062Z,6.00
2018-11-28T11:54:29.267Z,6.00
2018-11-28T11:56:57.756Z,6.00
2018-11-28T11:59:26.028Z,6.00
2018-11-28T12:01:54.917Z,6.00
2018-11-28T12:04:22.895Z,6.10
2018-11-28T12:06:51.180Z,6.10
2018-11-28T12:09:19.410Z,6.20
2018-11-28T12:11:47.589Z,6.10
2018-11-28T12:14:15.846Z,6.20
2018-11-28T12:16:44.101Z,6.00
2018-11-28T12:19:18.285Z,6.00
2018-11-28T12:21:46.585Z,6.10
2018-11-28T12:24:27.406Z,6.20
2018-11-28T12:26:57.850Z,6.20
2018-11-28T12:29:26.125Z,6.10
2018-11-28T12:31:54.346Z,6.10
2018-11-28T12:34:22.568Z,6.10
2018-11-28T12:36:50.907Z,6.20
2018-11-28T12:39:24.909Z,6.20
2018-11-28T12:41:53.134Z,6.10
2018-11-28T12:44:21.289Z,6.00
2018-11-28T12:46:49.583Z,6.10
2018-11-28T12:49:18.132Z,6.00
2018-11-28T12:51:46.422Z,6.10
2018-11-28T12:54:14.689Z,6.10
2018-11-28T12:56:42.920Z,6.10
2018-11-28T12:59:19.474Z,6.20
2018-11-28T13:01:47.754Z,6.20
2018-11-28T13:04:16.055Z,6.20
2018-11-28T13:06:44.359Z,6.30
2018-11-28T13:09:12.613Z,6.30
2018-11-28T13:11:40.913Z,6.30
2018-11-28T13:14:09.149Z,6.30
2018-11-28T13:16:37.391Z,6.30
2018-11-28T13:19:05.818Z,6.20
2018-11-28T13:21:34.107Z,6.10
2018-11-28T13:24:02.577Z,6.10
2018-11-28T13:26:30.825Z,6.10
2018-11-28T13:29:09.177Z,6.10
2018-11-28T13:31:37.418Z,6.00
2018-11-28T13:34:09.128Z,6.00
2018-11-28T13:36:37.575Z,6.00
2018-11-28T13:39:06.854Z,6.10
2018-11-28T13:41:35.151Z,6.10
2018-11-28T13:44:03.469Z,6.10
2018-11-28T13:46:50.200Z,6.10
2018-11-28T13:49:18.478Z,6.10
2018-11-28T13:51:46.620Z,6.10
2018-11-28T13:54:21.280Z,6.00
2018-11-28T13:57:00.655Z,6.00
2018-11-28T13:59:23.703Z,6.00
2018-11-28T14:02:05.406Z,6.00
2018-11-28T14:04:39.196Z,6.00
2018-11-28T14:07:15.620Z,5.90
2018-11-28T14:09:43.886Z,5.90
2018-11-28T14:12:12.129Z,5.90
2018-11-28T14:14:40.569Z,5.90
2018-11-28T14:17:08.626Z,5.90
2018-11-28T14:19:42.029Z,5.80
2018-11-28T14:22:10.411Z,5.70
2018-11-28T14:24:38.670Z,5.70
2018-11-28T14:27:06.925Z,5.70
2018-11-28T14:29:35.366Z,5.60
2018-11-28T14:32:03.684Z,5.60
2018-11-28T14:34:32.052Z,5.60
2018-11-28T14:37:00.417Z,5.60
2018-11-28T14:39:28.593Z,5.50
2018-11-28T14:41:56.883Z,5.50
2018-11-28T14:44:25.162Z,5.40
2018-11-28T14:46:53.437Z,5.40
2018-11-28T14:49:21.596Z,5.40
2018-11-28T14:51:49.812Z,5.40
2018-11-28T14:54:18.075Z,5.40
2018-11-28T14:56:46.290Z,5.40
2018-11-28T14:59:14.475Z,5.40
2018-11-28T15:01:42.659Z,5.40
2018-11-28T15:04:10.850Z,5.40
2018-11-28T15:06:49.537Z,5.40
2018-11-28T15:09:23.239Z,5.40
2018-11-28T15:11:51.432Z,5.40
2018-11-28T15:14:23.995Z,5.40
2018-11-28T15:16:52.816Z,5.30
2018-11-28T15:19:20.536Z,5.30
2018-11-28T15:21:48.816Z,5.30
2018-11-28T15:24:17.023Z,5.30
2018-11-28T15:26:45.277Z,5.30
2018-11-28T15:29:13.538Z,5.30
2018-11-28T15:31:41.835Z,5.30
2018-11-28T15:34:10.022Z,5.30
2018-11-28T15:36:38.173Z,5.30
2018-11-28T15:39:08.678Z,5.30
2018-11-28T15:41:37.823Z,5.30
2018-11-28T15:44:06.040Z,5.30
2018-11-28T15:46:34.347Z,5.30
2018-11-28T15:49:02.616Z,5.30
2018-11-28T15:51:30.817Z,5.30
2018-11-28T15:53:59.107Z,5.30
2018-11-28T15:56:27.295Z,5.30
2018-11-28T15:58:55.515Z,5.30
2018-11-28T16:01:23.810Z,5.30
2018-11-28T16:03:52.183Z,5.30
2018-11-28T16:06:20.487Z,5.30
2018-11-28T16:08:52.965Z,5.30
2018-11-28T16:11:21.480Z,5.30
2018-11-28T16:13:49.747Z,5.30
2018-11-28T16:16:18.095Z,5.30
2018-11-28T16:18:46.353Z,5.40
2018-11-28T16:21:14.630Z,5.30
2018-11-28T16:23:42.913Z,5.40
2018-11-28T16:26:11.201Z,5.40
2018-11-28T16:28:39.454Z,5.40
2018-11-28T16:31:07.735Z,5.30
2018-11-28T16:33:36.005Z,5.30
2018-11-28T16:36:04.367Z,5.30
2018-11-28T16:38:32.693Z,5.30
2018-11-28T16:41:01.131Z,5.30
2018-11-28T16:43:29.419Z,5.30
2018-11-28T16:45:57.726Z,5.30
2018-11-28T16:48:26.035Z,5.30
2018-11-28T16:50:54.365Z,5.30
2018-11-28T16:53:22.634Z,5.30
2018-11-28T16:55:50.931Z,5.30
2018-11-28T16:58:19.129Z,5.30
2018-11-28T17:00:47.398Z,5.30
2018-11-28T17:03:15.735Z,5.20
2018-11-28T17:05:44.175Z,5.20
2018-11-28T17:08:12.515Z,5.20
2018-11-28T17:10:40.835Z,5.10
2018-11-28T17:13:09.193Z,5.10
2018-11-28T17:15:37.471Z,5.10
2018-11-28T17:18:06.451Z,5.10
2018-11-28T17:20:34.687Z,5.10
2018-11-28T17:23:36.208Z,5.00
2018-11-28T17:26:04.943Z,5.10
2018-11-28T17:28:33.487Z,5.10
2018-11-28T17:31:01.827Z,5.00
2018-11-28T17:33:30.155Z,5.00
2018-11-28T17:35:58.561Z,5.00
2018-11-28T17:38:27.067Z,5.00
2018-11-28T17:40:55.311Z,5.00
2018-11-28T17:43:23.548Z,4.90
2018-11-28T17:45:51.934Z,4.90
2018-11-28T17:48:20.126Z,4.90
2018-11-28T17:50:48.362Z,4.90
2018-11-28T17:53:16.748Z,4.90
2018-11-28T17:55:46.600Z,4.90
2018-11-28T17:58:14.858Z,4.90
2018-11-28T18:00:43.188Z,4.90
2018-11-28T18:03:11.462Z,4.90
2018-11-28T18:05:39.777Z,4.90
2018-11-28T18:08:07.993Z,4.90
2018-11-28T18:10:36.321Z,4.90
2018-11-28T18:13:10.570Z,4.90
2018-11-28T18:15:39.737Z,4.80
2018-11-28T18:18:09.510Z,4.90
2018-11-28T18:20:37.668Z,4.80
2018-11-28T18:23:07.575Z,4.80
2018-11-28T18:25:42.631Z,4.80
2018-11-28T18:28:16.589Z,4.80
2018-11-28T18:30:45.907Z,4.80
2018-11-28T18:33:20.034Z,4.70
2018-11-28T18:35:48.209Z,4.70
2018-11-28T18:38:16.521Z,4.80
2018-11-28T18:40:44.737Z,4.80
2018-11-28T18:43:12.927Z,4.80
2018-11-28T18:45:45.066Z,4.80
2018-11-28T18:48:13.343Z,4.80
2018-11-28T18:50:41.559Z,4.80
2018-11-28T18:53:12.643Z,4.80
2018-11-28T18:55:42.474Z,4.80
2018-11-28T18:58:12.348Z,4.80
2018-11-28T19:00:41.286Z,4.80
2018-11-28T19:03:09.582Z,4.80
2018-11-28T19:05:38.953Z,4.80
2018-11-28T19:08:08.491Z,4.80
2018-11-28T19:10:38.812Z,4.80
2018-11-28T19:13:07.099Z,4.80
2018-11-28T19:15:40.800Z,4.80
2018-11-28T19:18:10.013Z,4.80
2018-11-28T19:20:38.357Z,4.80
2018-11-28T19:23:06.567Z,4.80
2018-11-28T19:25:35.094Z,4.80
2018-11-28T19:28:08.735Z,4.80
2018-11-28T19:30:39.341Z,4.90
2018-11-28T19:33:12.891Z,4.80
2018-11-28T19:35:41.100Z,4.80
2018-11-28T19:38:10.473Z,4.80
2018-11-28T19:40:47.667Z,4.90
2018-11-28T19:43:15.909Z,4.80
2018-11-28T19:45:44.090Z,4.80
2018-11-28T19:48:12.271Z,4.80
2018-11-28T19:50:40.460Z,4.80
2018-11-28T19:53:09.313Z,4.90
2018-11-28T19:55:37.818Z,4.90
2018-11-28T19:58:06.683Z,4.90
2018-11-28T20:00:34.885Z,4.90
2018-11-28T20:03:03.134Z,4.90
2018-11-28T20:05:31.334Z,4.90
2018-11-28T20:07:59.543Z,4.90
2018-11-28T20:10:27.805Z,5.00
2018-11-28T20:12:55.995Z,5.00
2018-11-28T20:15:28.245Z,5.00
2018-11-28T20:17:56.679Z,5.00
2018-11-28T20:20:24.881Z,5.00
2018-11-28T20:22:56.638Z,5.10
2018-11-28T20:25:25.232Z,5.10
2018-11-28T20:27:54.754Z,5.10
2018-11-28T20:30:29.248Z,5.10
2018-11-28T20:32:57.414Z,5.10
2018-11-28T20:35:25.598Z,5.10
2018-11-28T20:37:53.974Z,5.10
2018-11-28T20:40:22.277Z,5.10
2018-11-28T20:42:52.670Z,5.10
2018-11-28T20:45:23.082Z,5.10
2018-11-28T20:47:51.423Z,5.10
2018-11-28T20:50:22.255Z,5.10
2018-11-28T20:52:54.941Z,5.10
2018-11-28T20:55:20.579Z,5.20
2018-11-28T20:57:48.777Z,5.20
2018-11-28T21:00:18.493Z,5.10
2018-11-28T21:02:46.684Z,5.10
2018-11-28T21:05:14.972Z,5.10
2018-11-28T21:07:43.173Z,5.20
2018-11-28T21:10:17.898Z,5.20
2018-11-28T21:12:46.136Z,5.20
2018-11-28T21:15:14.328Z,5.20
2018-11-28T21:17:43.068Z,5.20
2018-11-28T21:20:13.588Z,5.10
2018-11-28T21:22:42.135Z,5.20
2018-11-28T21:25:11.304Z,5.20
2018-11-28T21:27:39.546Z,5.20
2018-11-28T21:30:13.060Z,5.20
2018-11-28T21:32:41.306Z,5.20
2018-11-28T21:35:17.932Z,5.20
2018-11-28T21:37:46.303Z,5.20
2018-11-28T21:40:14.593Z,5.20
2018-11-28T21:42:42.821Z,5.20
2018-11-28T21:45:13.403Z,5.20
2018-11-28T21:47:41.627Z,5.20
2018-11-28T21:50:19.349Z,5.20
2018-11-28T21:52:47.717Z,5.20
2018-11-28T21:55:17.846Z,5.30
2018-11-28T21:57:46.115Z,5.30
2018-11-28T22:00:24.501Z,5.30
2018-11-28T22:02:52.895Z,5.30
2018-11-28T22:05:21.402Z,5.30
2018-11-28T22:07:49.637Z,5.30
2018-11-28T22:10:22.706Z,5.30
2018-11-28T22:12:50.936Z,5.30
2018-11-28T22:15:19.326Z,5.20
2018-11-28T22:17:51.844Z,5.20
2018-11-28T22:20:20.417Z,5.20
2018-11-28T22:22:48.719Z,5.20
2018-11-28T22:25:25.721Z,5.20
2018-11-28T22:27:54.159Z,5.20
2018-11-28T22:30:24.530Z,5.20
2018-11-28T22:32:52.952Z,5.20
2018-11-28T22:35:21.268Z,5.20
2018-11-28T22:37:49.815Z,5.20
2018-11-28T22:40:20.875Z,5.20
2018-11-28T22:42:49.573Z,5.20
2018-11-28T22:45:18.775Z,5.30
2018-11-28T22:47:47.251Z,5.30
2018-11-28T22:50:15.426Z,5.30
2018-11-28T22:52:43.695Z,5.30
2018-11-28T22:55:12.925Z,5.30
2018-11-28T22:57:41.119Z,5.30
2018-11-28T23:00:31.200Z,5.30
2018-11-28T23:03:02.255Z,5.40
2018-11-28T23:05:36.222Z,5.30
2018-11-28T23:08:06.263Z,5.30
2018-11-28T23:10:34.515Z,5.30
2018-11-28T23:13:02.933Z,5.30
2018-11-28T23:15:31.195Z,5.30
2018-11-28T23:17:59.405Z,5.30
2018-11-28T23:20:27.634Z,5.30
2018-11-28T23:22:55.990Z,5.30
2018-11-28T23:25:24.286Z,5.40
2018-11-28T23:27:55.127Z,5.40
2018-11-28T23:30:23.308Z,5.40
2018-11-28T23:32:53.671Z,5.40
2018-11-28T23:35:22.279Z,5.40
2018-11-28T23:37:50.535Z,5.50
2018-11-28T23:40:21.480Z,5.50
2018-11-28T23:42:49.928Z,5.50
2018-11-28T23:45:18.199Z,5.50
2018-11-28T23:47:46.431Z,5.60
2018-11-28T23:50:20.280Z,5.60
2018-11-28T23:52:48.923Z,5.60
2018-11-28T23:55:21.998Z,5.60
2018-11-28T23:57:50.200Z,5.60
